Axtell, NE

5:12 PM CST on November 27, 2014 (GMT -0600)
Kearney Municipal | Change Station
CLOSE
Current Station
Airport
Location: Kearney,
Elevation: 2129 ft
Nearby Weather Stations

Elev 2129 ft 40.73 °N, 99.01 °W | Updated 17 minutes ago

Clear
Clear
37 °F
Feels Like 28 °F
N
15
Wind Variable Wind from SE

Today
High -- | Low -- °F
--% Chance of Precip.
Yesterday
High -- | Low -- °F
Precip. -- in
7:36 AM 5:11 PM
Waxing Crescent, 34% visible
Pressure 30.13 in
Visibility 10.0 miles
Clouds Clear
Windchill 28 °F
Dew Point 18 °F
Humidity 45%
Rainfall 0.00 in
Snow Depth Not available.
UV 0 out of 12
Pollen .10 out of 12
Air Quality Not available.
Flu Activity Not available.
METAR KEAR 272255Z 13013KT 10SM CLR 03/M08 A3013 RMK AO1

More Conditions Fewer Conditions

Pressure 30.13 in
Visibility 10.0 miles
Clouds Clear
Windchill 28 °F
Dew Point 18 °F
Humidity 45%
Rainfall 0.00 in
Snow Depth Not available.
UV 0 out of 12
Pollen .10 out of 12
Air Quality Not available.
Flu Activity Not available.
METAR KEAR 272255Z 13013KT 10SM CLR 03/M08 A3013 RMK AO1

More Conditions Fewer Conditions

10-Day Weather Forecast

Almanac

Astronomy

Nov. 27, 2014 Rise Set
Actual Time
Civil Twilight
Nautical Twilight
Astronomical Twilight
Moon
Length of Visible Light
Length of Day
Tomorrow will be .
, % of the Moon is Illuminated

Today's Extremes

State Highs State Lows

Community

WunderPhotos

Upload Photos

1,774,135 photos uploaded!

WunderBlogs® & News

Nearby

Air Quality

  Air Quality AQ Index Pollutant
Not available.

Snow Depth

Station Depth Elevation

Earthquake Activity

City Distance Mag. Time & Date
Minimum magnitude displayed is 2.5.

Coastal Water Temperatures

Place Temperature

Nearby Weather Stations